createdAt,value
2022-11-28T00:01:55.108Z,61.30
2022-11-28T00:04:23.915Z,61.20
2022-11-28T00:06:54.477Z,61.10
2022-11-28T00:09:23.549Z,61.30
2022-11-28T00:11:53.979Z,61.10
2022-11-28T00:14:22.454Z,61.20
2022-11-28T00:16:50.943Z,61.10
2022-11-28T00:19:19.505Z,61.10
2022-11-28T00:21:49.129Z,61.10
2022-11-28T00:24:18.926Z,60.90
2022-11-28T00:26:47.412Z,61.10
2022-11-28T00:29:18.363Z,61.20
2022-11-28T00:31:46.994Z,61.30
2022-11-28T00:34:16.371Z,61.10
2022-11-28T00:36:47.009Z,61.20
2022-11-28T00:39:16.843Z,61.00
2022-11-28T00:41:46.239Z,61.50
2022-11-28T00:44:15.136Z,61.10
2022-11-28T00:46:44.920Z,61.10
2022-11-28T00:49:13.351Z,60.90
2022-11-28T00:51:41.647Z,61.00
2022-11-28T00:54:11.145Z,61.10
2022-11-28T00:56:41.590Z,60.90
2022-11-28T00:59:10.676Z,61.00
2022-11-28T01:01:40.939Z,61.00
2022-11-28T01:04:14.364Z,61.40
2022-11-28T01:06:44.976Z,60.80
2022-11-28T01:09:16.050Z,61.20
2022-11-28T01:11:45.523Z,60.90
2022-11-28T01:14:14.780Z,61.20
2022-11-28T01:16:43.459Z,61.00
2022-11-28T01:19:13.968Z,60.60
2022-11-28T01:21:42.908Z,60.70
2022-11-28T01:24:12.457Z,60.80
2022-11-28T01:26:41.627Z,60.70
2022-11-28T01:29:10.684Z,60.70
2022-11-28T01:31:39.508Z,60.80
2022-11-28T01:34:07.885Z,60.80
2022-11-28T01:36:37.921Z,60.80
2022-11-28T01:39:06.304Z,61.00
2022-11-28T01:41:35.342Z,60.50
2022-11-28T01:44:28.940Z,60.70
2022-11-28T01:46:58.046Z,60.60
2022-11-28T01:49:30.624Z,60.80
2022-11-28T01:52:05.136Z,60.80
2022-11-28T01:54:36.485Z,60.60
2022-11-28T01:57:09.256Z,60.80
2022-11-28T01:59:41.683Z,61.10
2022-11-28T02:02:19.177Z,60.60
2022-11-28T02:04:48.803Z,60.70
2022-11-28T02:07:20.476Z,60.60
2022-11-28T02:09:48.841Z,60.20
2022-11-28T02:12:29.460Z,60.50
2022-11-28T02:15:15.393Z,60.50
2022-11-28T02:17:56.112Z,60.20
2022-11-28T02:20:47.452Z,60.50
2022-11-28T02:23:22.712Z,60.00
2022-11-28T02:26:23.421Z,60.20
2022-11-28T02:29:20.464Z,60.50
2022-11-28T02:32:35.758Z,60.30
2022-11-28T02:35:11.122Z,60.30
2022-11-28T02:37:46.405Z,59.90
2022-11-28T02:40:21.415Z,60.00
2022-11-28T02:42:59.438Z,60.40
2022-11-28T02:45:33.029Z,59.90
2022-11-28T02:48:05.472Z,60.30
2022-11-28T02:50:37.995Z,60.20
2022-11-28T02:53:10.723Z,60.00
2022-11-28T02:55:41.263Z,60.30
2022-11-28T02:58:11.449Z,59.90
2022-11-28T03:00:43.645Z,60.20
2022-11-28T03:03:42.412Z,60.00
2022-11-28T03:06:19.778Z,60.20
2022-11-28T03:09:04.933Z,60.10
2022-11-28T03:11:47.727Z,59.90
2022-11-28T03:14:25.425Z,59.80
2022-11-28T03:17:02.860Z,59.50
2022-11-28T03:19:37.285Z,59.80
2022-11-28T03:22:11.485Z,59.70
2022-11-28T03:24:45.344Z,60.00
2022-11-28T03:27:19.095Z,60.20
2022-11-28T03:29:51.256Z,59.90
2022-11-28T03:32:24.302Z,59.80
2022-11-28T03:35:01.235Z,59.70
2022-11-28T03:37:34.171Z,59.80
2022-11-28T03:40:07.297Z,59.80
2022-11-28T03:42:39.463Z,59.90
2022-11-28T03:45:11.875Z,59.30
2022-11-28T03:47:43.888Z,59.30
2022-11-28T03:50:19.024Z,59.50
2022-11-28T03:52:52.340Z,59.20
2022-11-28T03:55:26.893Z,59.40
2022-11-28T03:58:00.788Z,59.40
2022-11-28T04:00:29.512Z,59.40
2022-11-28T04:03:09.746Z,59.30
2022-11-28T04:05:47.147Z,59.10
2022-11-28T04:08:18.663Z,59.30
2022-11-28T04:10:51.384Z,59.10
2022-11-28T04:13:24.797Z,59.30
2022-11-28T04:15:59.695Z,58.90
2022-11-28T04:18:30.629Z,58.90
2022-11-28T04:21:05.259Z,58.60
2022-11-28T04:23:35.363Z,59.00
2022-11-28T04:26:12.740Z,58.90
2022-11-28T04:28:42.336Z,58.50
2022-11-28T04:31:11.907Z,58.40
2022-11-28T04:33:44.096Z,58.70
2022-11-28T04:36:18.309Z,58.50
2022-11-28T04:38:56.115Z,58.20
2022-11-28T04:41:31.024Z,58.70
2022-11-28T04:44:04.261Z,58.10
2022-11-28T04:46:38.009Z,58.00
2022-11-28T04:49:07.013Z,58.00
2022-11-28T04:51:44.131Z,58.00
2022-11-28T04:54:20.227Z,58.20
2022-11-28T04:56:54.440Z,58.10
2022-11-28T04:59:26.269Z,57.80
2022-11-28T05:01:58.548Z,57.50
2022-11-28T05:04:27.210Z,57.50
2022-11-28T05:07:04.575Z,57.80
2022-11-28T05:09:33.173Z,57.40
2022-11-28T05:12:01.579Z,57.80
2022-11-28T05:14:29.904Z,57.50
2022-11-28T05:16:58.593Z,57.70
2022-11-28T05:19:27.138Z,57.70
2022-11-28T05:21:55.769Z,57.70
2022-11-28T05:24:31.976Z,57.00
2022-11-28T05:27:00.987Z,57.60
2022-11-28T05:29:29.992Z,57.80
2022-11-28T05:31:58.325Z,57.50
2022-11-28T05:34:27.180Z,57.50
2022-11-28T05:36:55.732Z,57.50
2022-11-28T05:39:25.812Z,57.50
2022-11-28T05:41:56.324Z,57.90
2022-11-28T05:44:27.050Z,57.40
2022-11-28T05:46:55.820Z,57.70
2022-11-28T05:49:25.511Z,57.40
2022-11-28T05:51:54.230Z,57.10
2022-11-28T05:54:22.468Z,57.30
2022-11-28T05:56:52.152Z,57.30
2022-11-28T05:59:20.676Z,57.30
2022-11-28T06:01:49.098Z,57.10
2022-11-28T06:04:17.781Z,57.50
2022-11-28T06:06:46.159Z,57.60
2022-11-28T06:09:14.616Z,57.60
2022-11-28T06:11:42.973Z,57.50
2022-11-28T06:14:12.958Z,57.20
2022-11-28T06:16:42.925Z,57.20
2022-11-28T06:19:13.856Z,57.50
2022-11-28T06:21:42.286Z,57.40
2022-11-28T06:24:11.142Z,57.30
2022-11-28T06:26:39.397Z,57.30
2022-11-28T06:29:08.000Z,57.50
2022-11-28T06:31:37.805Z,57.20
2022-11-28T06:34:06.508Z,57.50
2022-11-28T06:36:35.199Z,57.20
2022-11-28T06:39:03.833Z,57.40
2022-11-28T06:41:32.179Z,57.10
2022-11-28T06:44:00.776Z,57.10
2022-11-28T06:46:29.304Z,56.90
2022-11-28T06:48:59.395Z,57.00
2022-11-28T06:51:28.728Z,57.10
2022-11-28T06:53:57.500Z,57.00
2022-11-28T06:56:25.845Z,56.90
2022-11-28T06:58:59.105Z,57.50
2022-11-28T07:01:29.654Z,57.30
2022-11-28T07:03:59.996Z,57.00
2022-11-28T07:06:29.867Z,57.10
2022-11-28T07:08:59.833Z,56.90
2022-11-28T07:11:29.922Z,56.70
2022-11-28T07:13:59.866Z,56.70
2022-11-28T07:16:30.781Z,56.80
2022-11-28T07:19:01.570Z,56.70
2022-11-28T07:21:30.915Z,56.40
2022-11-28T07:24:00.568Z,56.60
2022-11-28T07:26:29.140Z,56.70
2022-11-28T07:28:58.306Z,56.70
2022-11-28T07:31:32.015Z,56.60
2022-11-28T07:34:04.205Z,57.00
2022-11-28T07:36:33.024Z,56.90
2022-11-28T07:39:03.411Z,56.80
2022-11-28T07:41:31.877Z,56.30
2022-11-28T07:44:02.067Z,56.60
2022-11-28T07:46:32.260Z,56.70
2022-11-28T07:49:02.359Z,56.80
2022-11-28T07:51:33.621Z,56.70
2022-11-28T07:54:03.103Z,56.70
2022-11-28T07:56:57.264Z,56.50
2022-11-28T07:59:21.885Z,56.50
2022-11-28T08:01:50.270Z,56.60
2022-11-28T08:04:20.045Z,56.00
2022-11-28T08:06:48.429Z,56.20
2022-11-28T08:09:16.888Z,56.40
2022-11-28T08:11:45.773Z,56.50
2022-11-28T08:14:14.851Z,56.30
2022-11-28T08:16:45.135Z,56.10
2022-11-28T08:19:14.248Z,56.20
2022-11-28T08:21:44.205Z,56.10
2022-11-28T08:24:12.864Z,56.00
2022-11-28T08:26:41.213Z,56.00
2022-11-28T08:29:10.837Z,56.00
2022-11-28T08:31:40.888Z,55.90
2022-11-28T08:34:11.122Z,55.70
2022-11-28T08:36:39.710Z,55.90
2022-11-28T08:39:24.150Z,55.50
2022-11-28T08:41:54.206Z,55.50
2022-11-28T08:44:22.910Z,55.60
2022-11-28T08:46:51.324Z,55.50
2022-11-28T08:49:19.995Z,55.10
2022-11-28T08:51:48.343Z,55.60
2022-11-28T08:54:18.730Z,55.40
2022-11-28T08:56:48.607Z,55.40
2022-11-28T08:59:19.108Z,55.70
2022-11-28T09:01:47.519Z,55.50
2022-11-28T09:04:16.286Z,55.40
2022-11-28T09:06:45.075Z,55.50
2022-11-28T09:09:13.604Z,55.50
2022-11-28T09:11:43.878Z,55.60
2022-11-28T09:14:12.644Z,55.60
2022-11-28T09:16:41.642Z,55.60
2022-11-28T09:19:10.733Z,55.30
2022-11-28T09:21:40.025Z,55.50
2022-11-28T09:24:09.638Z,55.80
2022-11-28T09:26:38.571Z,55.30
2022-11-28T09:29:08.189Z,55.30
2022-11-28T09:31:37.007Z,55.30
2022-11-28T09:34:05.397Z,55.20
2022-11-28T09:36:34.255Z,55.30
2022-11-28T09:39:02.978Z,55.20
2022-11-28T09:41:57.704Z,55.30
2022-11-28T09:44:34.533Z,55.10
2022-11-28T09:47:07.870Z,55.20
2022-11-28T09:49:43.201Z,55.60
2022-11-28T09:52:25.907Z,55.10
2022-11-28T09:55:02.761Z,55.00
2022-11-28T09:57:35.582Z,55.00
2022-11-28T10:00:07.083Z,55.20
2022-11-28T10:02:43.787Z,55.30
2022-11-28T10:05:23.319Z,55.20
2022-11-28T10:08:14.071Z,55.40
2022-11-28T10:10:53.732Z,54.90
2022-11-28T10:13:41.181Z,55.20
2022-11-28T10:16:27.193Z,54.80
2022-11-28T10:19:00.594Z,55.00
2022-11-28T10:21:36.153Z,55.00
2022-11-28T10:24:08.389Z,54.90
2022-11-28T10:26:39.305Z,54.80
2022-11-28T10:29:17.410Z,54.70
2022-11-28T10:31:49.521Z,55.00
2022-11-28T10:34:24.715Z,54.80
2022-11-28T10:37:01.482Z,55.00
2022-11-28T10:39:30.035Z,55.00
2022-11-28T10:42:14.798Z,54.90
2022-11-28T10:44:57.389Z,54.90
2022-11-28T10:47:45.024Z,55.10
2022-11-28T10:50:21.797Z,55.20
2022-11-28T10:52:57.868Z,55.20
2022-11-28T10:55:38.515Z,55.30
2022-11-28T10:58:16.549Z,54.70
2022-11-28T11:00:49.259Z,54.50
2022-11-28T11:03:20.475Z,54.80
2022-11-28T11:05:48.951Z,54.90
2022-11-28T11:08:21.246Z,54.90
2022-11-28T11:10:52.520Z,54.80
2022-11-28T11:13:23.725Z,54.60
2022-11-28T11:15:59.196Z,54.60
2022-11-28T11:18:31.366Z,54.30
2022-11-28T11:21:10.655Z,54.40
2022-11-28T11:23:39.067Z,54.40
2022-11-28T11:26:10.144Z,54.50
2022-11-28T11:28:44.449Z,54.70
2022-11-28T11:31:25.973Z,54.60
2022-11-28T11:34:05.053Z,54.60
2022-11-28T11:36:35.512Z,54.70
2022-11-28T11:39:16.840Z,54.30
2022-11-28T11:41:47.116Z,54.70
2022-11-28T11:44:29.740Z,54.80
2022-11-28T11:47:00.832Z,54.30
2022-11-28T11:49:33.261Z,54.70
2022-11-28T11:52:04.248Z,54.80
2022-11-28T11:54:32.603Z,54.70
2022-11-28T11:57:30.904Z,54.50
2022-11-28T11:59:54.294Z,54.60
2022-11-28T12:02:28.988Z,54.20
2022-11-28T12:05:04.164Z,54.20
2022-11-28T12:07:39.749Z,54.30
2022-11-28T12:10:16.349Z,54.20
2022-11-28T12:12:45.145Z,53.90
2022-11-28T12:15:19.359Z,53.70
2022-11-28T12:18:03.726Z,53.90
2022-11-28T12:20:45.148Z,53.80
2022-11-28T12:23:26.469Z,53.90
2022-11-28T12:26:00.470Z,54.00
2022-11-28T12:28:42.885Z,54.10
2022-11-28T12:31:22.604Z,54.20
2022-11-28T12:33:59.187Z,54.10
2022-11-28T12:36:35.153Z,54.00
2022-11-28T12:39:18.684Z,54.10
2022-11-28T12:42:15.459Z,53.60
2022-11-28T12:45:22.764Z,53.90
2022-11-28T12:48:01.672Z,53.60
2022-11-28T12:50:34.732Z,53.70
2022-11-28T12:53:21.753Z,53.30
2022-11-28T12:55:57.737Z,54.00
2022-11-28T12:58:33.833Z,53.80
2022-11-28T13:01:17.265Z,53.40
2022-11-28T13:03:55.450Z,53.70
2022-11-28T13:06:32.601Z,53.50
2022-11-28T13:09:21.669Z,53.40
2022-11-28T13:11:59.682Z,53.60
2022-11-28T13:14:38.421Z,53.50
2022-11-28T13:17:20.872Z,53.70
2022-11-28T13:19:55.662Z,53.60
2022-11-28T13:22:26.451Z,53.90
2022-11-28T13:25:03.243Z,53.90
2022-11-28T13:27:40.513Z,53.60
2022-11-28T13:30:20.533Z,53.90
2022-11-28T13:32:54.375Z,53.40
2022-11-28T13:35:23.648Z,53.80
2022-11-28T13:40:54.451Z,53.70
2022-11-28T13:43:28.666Z,53.60
2022-11-28T13:45:57.565Z,53.70
2022-11-28T13:49:19.784Z,53.60
2022-11-28T13:51:48.923Z,53.50
2022-11-28T13:54:48.809Z,53.90
2022-11-28T13:57:29.307Z,53.60
2022-11-28T14:00:03.311Z,53.50
2022-11-28T14:02:42.577Z,53.80
2022-11-28T14:05:30.219Z,53.60
2022-11-28T14:07:59.028Z,54.00
2022-11-28T14:10:56.596Z,53.60
2022-11-28T14:13:48.079Z,54.20
2022-11-28T14:16:28.197Z,53.60
2022-11-28T14:19:16.630Z,53.90
2022-11-28T14:21:59.059Z,53.90
2022-11-28T14:24:41.248Z,53.70
2022-11-28T14:27:21.190Z,54.00
2022-11-28T14:29:54.175Z,53.90
2022-11-28T14:32:31.695Z,54.30
2022-11-28T14:35:00.930Z,54.20
2022-11-28T14:37:57.830Z,54.00
2022-11-28T14:41:06.012Z,54.20
2022-11-28T14:43:39.217Z,54.10
2022-11-28T14:46:29.500Z,54.00
2022-11-28T14:49:20.416Z,54.50
2022-11-28T14:52:38.443Z,54.40
2022-11-28T14:55:17.192Z,54.70
2022-11-28T14:57:56.083Z,54.30
2022-11-28T15:00:26.802Z,54.50
2022-11-28T15:03:26.494Z,54.70
2022-11-28T15:05:59.356Z,54.50
2022-11-28T15:08:51.211Z,54.80
2022-11-28T15:11:38.927Z,54.50
2022-11-28T15:14:12.956Z,54.40
2022-11-28T15:16:49.823Z,55.00
2022-11-28T15:19:25.125Z,55.00
2022-11-28T15:21:55.659Z,55.00
2022-11-28T15:24:27.621Z,54.90
2022-11-28T15:26:57.979Z,55.30
2022-11-28T15:29:28.243Z,55.30
2022-11-28T15:32:01.128Z,54.90
2022-11-28T15:34:37.888Z,55.00
2022-11-28T15:37:08.783Z,55.00
2022-11-28T15:39:40.429Z,55.30
2022-11-28T15:42:19.470Z,55.40
2022-11-28T15:44:48.152Z,55.30
2022-11-28T15:47:20.635Z,55.20
2022-11-28T15:50:01.744Z,55.20
2022-11-28T15:52:32.035Z,55.60
2022-11-28T15:55:00.851Z,55.40
2022-11-28T15:57:32.686Z,55.30
2022-11-28T16:00:03.248Z,55.80
2022-11-28T16:02:35.397Z,55.60
2022-11-28T16:05:10.140Z,55.70
2022-11-28T16:07:44.097Z,55.30
2022-11-28T16:10:24.472Z,55.90
2022-11-28T16:13:04.124Z,56.10
2022-11-28T16:15:32.954Z,55.60
2022-11-28T16:18:01.361Z,55.90
2022-11-28T16:20:36.192Z,56.00
2022-11-28T16:23:13.368Z,55.90
2022-11-28T16:25:41.796Z,56.00
2022-11-28T16:28:30.582Z,56.20
2022-11-28T16:31:01.940Z,56.30
2022-11-28T16:33:41.929Z,55.70
2022-11-28T16:36:21.734Z,55.60
2022-11-28T16:38:55.145Z,55.80
2022-11-28T16:41:26.231Z,55.90
2022-11-28T16:44:01.833Z,56.20
2022-11-28T16:46:35.039Z,56.20
2022-11-28T16:49:07.103Z,56.40
2022-11-28T16:51:39.144Z,55.90
2022-11-28T16:54:30.911Z,56.30
2022-11-28T16:57:10.660Z,56.20
2022-11-28T16:59:39.136Z,56.00
2022-11-28T17:02:15.793Z,56.50
2022-11-28T17:04:45.338Z,56.20
2022-11-28T17:07:18.303Z,56.30
2022-11-28T17:09:48.439Z,56.20
2022-11-28T17:12:25.160Z,56.20
2022-11-28T17:14:53.493Z,56.50
2022-11-28T17:17:24.373Z,56.20
2022-11-28T17:19:53.159Z,56.30
2022-11-28T17:22:25.466Z,56.40
2022-11-28T17:24:59.656Z,56.30
2022-11-28T17:27:28.405Z,56.10
2022-11-28T17:29:57.260Z,56.50
2022-11-28T17:32:26.248Z,56.80
2022-11-28T17:34:54.904Z,56.40
2022-11-28T17:37:24.794Z,56.70
2022-11-28T17:40:09.636Z,56.30
2022-11-28T17:42:39.007Z,56.50
2022-11-28T17:45:14.516Z,56.20
2022-11-28T17:47:43.128Z,56.20
2022-11-28T17:50:12.203Z,56.20
2022-11-28T17:52:42.951Z,56.60
2022-11-28T17:55:11.577Z,56.40
2022-11-28T17:57:40.321Z,56.50
2022-11-28T18:00:10.588Z,56.30
2022-11-28T18:02:39.505Z,56.10
2022-11-28T18:05:08.589Z,56.70
2022-11-28T18:07:37.477Z,56.40
2022-11-28T18:10:09.888Z,56.30
2022-11-28T18:12:42.471Z,56.20
2022-11-28T18:15:11.413Z,56.40
2022-11-28T18:17:39.860Z,56.40
2022-11-28T18:20:11.330Z,56.70
2022-11-28T18:22:39.622Z,56.10
2022-11-28T18:25:11.023Z,56.30
2022-11-28T18:27:39.550Z,56.50
2022-11-28T18:30:09.637Z,56.30
2022-11-28T18:32:38.099Z,56.40
2022-11-28T18:35:07.527Z,56.80
2022-11-28T18:37:35.757Z,56.30
2022-11-28T18:40:09.034Z,56.30
2022-11-28T18:42:39.135Z,56.60
2022-11-28T18:45:08.662Z,56.60
2022-11-28T18:47:37.305Z,56.70
2022-11-28T18:50:09.380Z,56.90
2022-11-28T18:52:37.925Z,56.60
2022-11-28T18:55:06.936Z,56.60
2022-11-28T18:57:35.366Z,56.90
2022-11-28T19:00:06.939Z,57.00
2022-11-28T19:02:35.730Z,56.60
2022-11-28T19:05:04.613Z,56.60
2022-11-28T19:07:33.824Z,56.60
2022-11-28T19:10:03.154Z,56.50
2022-11-28T19:12:32.129Z,56.70
2022-11-28T19:15:02.639Z,56.70
2022-11-28T19:17:32.590Z,56.30
2022-11-28T19:20:01.025Z,56.50
2022-11-28T19:22:29.385Z,56.90
2022-11-28T19:24:57.832Z,56.90
2022-11-28T19:27:26.141Z,56.70
2022-11-28T19:29:54.473Z,56.60
2022-11-28T19:32:24.618Z,57.10
2022-11-28T19:34:55.423Z,56.60
2022-11-28T19:37:23.659Z,56.90
2022-11-28T19:39:52.236Z,56.80
2022-11-28T19:42:20.616Z,56.70
2022-11-28T19:44:50.019Z,56.90
2022-11-28T19:47:18.396Z,57.20
2022-11-28T19:49:47.600Z,57.40
2022-11-28T19:52:17.454Z,57.10
2022-11-28T19:54:45.813Z,57.30
2022-11-28T19:57:14.237Z,57.30
2022-11-28T19:59:42.877Z,57.50
2022-11-28T20:02:11.511Z,57.40
2022-11-28T20:04:40.434Z,57.50
2022-11-28T20:07:08.844Z,57.60
2022-11-28T20:09:38.827Z,57.60
2022-11-28T20:12:07.441Z,57.90
2022-11-28T20:14:35.880Z,57.70
2022-11-28T20:17:04.455Z,58.00
2022-11-28T20:19:32.730Z,58.40
2022-11-28T20:22:01.300Z,57.90
2022-11-28T20:24:30.516Z,58.10
2022-11-28T20:27:00.246Z,58.30
2022-11-28T20:29:30.756Z,58.40
2022-11-28T20:31:59.307Z,57.80
2022-11-28T20:34:27.900Z,58.30
2022-11-28T20:36:56.254Z,58.10
2022-11-28T20:39:24.679Z,58.00
2022-11-28T20:41:53.365Z,58.50
2022-11-28T20:44:23.185Z,58.40
2022-11-28T20:46:51.534Z,58.40
2022-11-28T20:49:20.317Z,58.20
2022-11-28T20:51:50.363Z,58.40
2022-11-28T20:54:20.220Z,58.40
2022-11-28T20:59:38.483Z,58.30
2022-11-28T21:02:07.120Z,58.20
2022-11-28T21:04:36.381Z,58.80
2022-11-28T21:07:05.188Z,58.40
2022-11-28T21:09:33.474Z,58.60
2022-11-28T21:12:01.836Z,58.60
2022-11-28T21:14:30.141Z,58.40
2022-11-28T21:17:00.056Z,58.50
2022-11-28T21:19:28.661Z,58.40
2022-11-28T21:21:57.034Z,59.10
2022-11-28T21:24:26.040Z,58.90
2022-11-28T21:26:55.008Z,58.90
2022-11-28T21:29:25.075Z,59.10
2022-11-28T21:31:54.149Z,59.40
2022-11-28T21:34:23.840Z,59.00
2022-11-28T21:36:52.030Z,59.10
2022-11-28T21:39:22.249Z,59.10
2022-11-28T21:41:51.957Z,59.50
2022-11-28T21:44:21.149Z,59.50
2022-11-28T21:46:49.761Z,59.70
2022-11-28T21:49:18.826Z,59.30
2022-11-28T21:51:48.499Z,59.70
2022-11-28T21:54:17.071Z,59.60
2022-11-28T21:56:45.462Z,59.70
2022-11-28T21:59:13.899Z,59.50
2022-11-28T22:01:42.584Z,59.80
2022-11-28T22:04:12.227Z,59.60
2022-11-28T22:06:41.802Z,59.80
2022-11-28T22:09:11.404Z,59.80
2022-11-28T22:11:40.582Z,59.60
2022-11-28T22:14:09.220Z,59.60
2022-11-28T22:16:37.443Z,60.00
2022-11-28T22:19:06.088Z,60.10
2022-11-28T22:21:52.607Z,59.90
2022-11-28T22:24:23.471Z,60.00
2022-11-28T22:26:51.905Z,59.90
2022-11-28T22:29:21.345Z,59.70
2022-11-28T22:31:49.675Z,59.70
2022-11-28T22:34:18.007Z,59.80
2022-11-28T22:36:46.299Z,60.20
2022-11-28T22:39:14.980Z,59.90
2022-11-28T22:41:44.595Z,60.00
2022-11-28T22:44:13.122Z,60.00
2022-11-28T22:46:41.486Z,60.10
2022-11-28T22:49:16.985Z,59.80
2022-11-28T22:51:46.893Z,60.00
2022-11-28T22:54:17.672Z,60.10
2022-11-28T22:56:51.291Z,60.20
2022-11-28T22:59:20.993Z,60.50
2022-11-28T23:01:58.758Z,60.30
2022-11-28T23:04:27.799Z,60.10
2022-11-28T23:06:59.466Z,60.50
2022-11-28T23:09:28.077Z,60.40
2022-11-28T23:11:58.601Z,60.50
2022-11-28T23:14:30.527Z,60.20
2022-11-28T23:16:59.603Z,60.30
2022-11-28T23:19:29.118Z,60.50
2022-11-28T23:21:58.753Z,60.40
2022-11-28T23:24:46.311Z,60.50
2022-11-28T23:27:25.758Z,60.70
2022-11-28T23:29:55.581Z,60.60
2022-11-28T23:32:26.696Z,60.50
2022-11-28T23:34:56.156Z,60.60
2022-11-28T23:37:30.664Z,60.60
2022-11-28T23:39:59.723Z,60.50
2022-11-28T23:42:29.772Z,60.20
2022-11-28T23:44:58.623Z,60.00
2022-11-28T23:47:29.423Z,60.50
2022-11-28T23:49:58.139Z,60.50
2022-11-28T23:52:27.229Z,60.40
2022-11-28T23:54:55.891Z,60.50
2022-11-28T23:57:28.261Z,60.60
